Time;durP1;ratioP1;P1;durP2;ratioP2;P2;SDS_P1;SDS_P2;PMS_P1;PMS_P2;Temp;Humidity;BMP_temperature;BMP_pressure;BME280_temperature;BME280_humidity;BME280_pressure;Samples;Min_cycle;Max_cycle;Signal;HPM_P1;HPM_P2
2023/04/30 00:02:13;;;;;;;4.80;1.50;;;8.00;99.90;;;;;;5004353;28;20193;-66
2023/04/30 00:04:39;;;;;;;2.43;2.23;;;8.00;99.90;;;;;;5011803;28;20206;-65
2023/04/30 00:07:04;;;;;;;3.13;2.30;;;7.90;99.90;;;;;;5011318;28;20174;-65
2023/04/30 00:09:30;;;;;;;5.63;2.47;;;7.90;99.90;;;;;;5003912;28;20204;-65
2023/04/30 00:11:56;;;;;;;2.80;1.90;;;7.90;99.90;;;;;;5003818;28;20581;-66
2023/04/30 00:14:21;;;;;;;5.50;2.90;;;7.90;99.90;;;;;;5002159;28;20260;-65
2023/04/30 00:16:47;;;;;;;2.90;1.50;;;7.80;99.90;;;;;;4990664;28;20173;-65
2023/04/30 00:19:12;;;;;;;3.90;1.50;;;7.80;99.90;;;;;;5017748;28;20187;-65
2023/04/30 00:21:38;;;;;;;5.50;2.60;;;7.80;99.90;;;;;;5008282;28;20288;-65
2023/04/30 00:24:04;;;;;;;2.43;1.60;;;7.80;99.90;;;;;;5002453;28;20552;-66
2023/04/30 00:26:30;;;;;;;4.90;1.80;;;7.70;99.90;;;;;;5002152;28;20245;-66
2023/04/30 00:28:55;;;;;;;5.27;1.90;;;7.70;99.90;;;;;;5003575;28;20848;-64
2023/04/30 00:31:21;;;;;;;4.67;2.10;;;7.60;99.90;;;;;;5013828;28;20670;-65
2023/04/30 00:33:46;;;;;;;3.30;1.60;;;7.70;99.90;;;;;;5008703;28;20227;-65
2023/04/30 00:36:12;;;;;;;4.63;2.70;;;7.60;99.90;;;;;;5017012;28;20176;-67
2023/04/30 00:38:38;;;;;;;2.90;1.83;;;7.50;99.90;;;;;;5008073;28;20181;-65
2023/04/30 00:41:04;;;;;;;4.80;1.87;;;7.50;99.90;;;;;;5002094;28;20225;-64
2023/04/30 00:43:30;;;;;;;2.77;2.17;;;7.50;99.90;;;;;;5001126;28;20499;-66
2023/04/30 00:45:57;;;;;;;4.10;1.80;;;7.50;99.90;;;;;;5014775;28;20450;-65
2023/04/30 00:48:23;;;;;;;3.63;2.20;;;7.40;99.90;;;;;;5006030;28;20173;-66
2023/04/30 00:50:49;;;;;;;3.87;1.70;;;7.40;99.90;;;;;;5007479;28;20938;-66
2023/04/30 00:53:15;;;;;;;6.73;2.33;;;7.30;99.90;;;;;;5016805;28;20417;-65
2023/04/30 00:55:42;;;;;;;6.63;1.87;;;7.30;99.90;;;;;;4989586;28;20204;-67
2023/04/30 00:58:08;;;;;;;3.27;1.97;;;7.20;99.90;;;;;;5001585;28;21026;-65
2023/04/30 01:00:33;;;;;;;3.70;1.70;;;7.20;99.90;;;;;;5006939;28;20519;-65
2023/04/30 01:03:00;;;;;;;3.20;1.97;;;7.10;99.90;;;;;;5008967;28;20186;-66
2023/04/30 01:05:26;;;;;;;10.63;2.80;;;7.10;99.90;;;;;;5019479;28;20227;-65
2023/04/30 01:07:54;;;;;;;3.63;1.90;;;7.10;99.90;;;;;;5003920;28;20423;-65
2023/04/30 01:10:24;;;;;;;3.60;2.07;;;7.10;99.90;;;;;;5002913;28;20276;-65
2023/04/30 01:13:05;;;;;;;5.20;1.77;;;6.90;99.90;;;;;;5011261;28;20407;-65
2023/04/30 01:15:52;;;;;;;3.77;2.37;;;6.90;99.90;;;;;;4998550;28;20938;-67
2023/04/30 01:18:24;;;;;;;2.13;1.67;;;6.90;99.90;;;;;;4993602;28;20444;-66
2023/04/30 01:20:58;;;;;;;8.97;2.17;;;6.90;99.90;;;;;;5012445;28;20772;-66
2023/04/30 01:24:04;;;;;;;1.97;1.73;;;6.90;99.90;;;;;;5017249;28;20490;-65
2023/04/30 01:27:17;;;;;;;7.30;2.23;;;6.80;99.90;;;;;;4918349;29;20490;-65
2023/04/30 01:29:42;;;;;;;3.53;2.20;;;6.80;99.90;;;;;;4914652;29;20813;-67
2023/04/30 01:32:10;;;;;;;2.77;1.77;;;6.70;99.90;;;;;;4993281;28;20510;-66
2023/04/30 01:34:35;;;;;;;6.23;2.40;;;6.70;99.90;;;;;;5003700;28;20544;-65
2023/04/30 01:37:23;;;;;;;3.43;2.30;;;6.60;99.90;;;;;;5017337;28;20510;-65
2023/04/30 01:40:12;;;;;;;5.83;2.50;;;6.60;99.90;;;;;;5001829;28;20193;-65
2023/04/30 01:42:42;;;;;;;1.77;1.67;;;6.50;99.90;;;;;;5015334;28;20422;-65
2023/04/30 01:45:31;;;;;;;4.87;2.83;;;6.50;99.90;;;;;;5007883;28;20463;-65
2023/04/30 01:48:05;;;;;;;2.67;2.43;;;6.40;99.90;;;;;;5012486;28;20427;-65
2023/04/30 01:50:42;;;;;;;5.33;2.40;;;6.40;99.90;;;;;;5014040;28;20426;-65
2023/04/30 01:53:19;;;;;;;4.53;2.20;;;6.40;99.90;;;;;;5000516;28;20425;-65
2023/04/30 01:56:01;;;;;;;6.20;2.20;;;6.40;99.90;;;;;;5011945;28;20480;-64
2023/04/30 01:58:28;;;;;;;10.57;2.50;;;6.30;99.90;;;;;;5004672;28;20595;-68
2023/04/30 02:00:54;;;;;;;5.03;2.87;;;6.30;99.90;;;;;;5006730;28;20536;-66
2023/04/30 02:03:19;;;;;;;3.07;2.40;;;6.30;99.90;;;;;;5009912;28;20502;-65
2023/04/30 02:05:46;;;;;;;9.90;2.60;;;6.20;99.90;;;;;;5003083;28;20573;-66
2023/04/30 02:08:12;;;;;;;5.23;2.53;;;6.20;99.90;;;;;;5004303;28;20259;-65
2023/04/30 02:10:37;;;;;;;5.50;2.70;;;6.10;99.90;;;;;;5018910;28;20562;-65
2023/04/30 02:13:03;;;;;;;2.90;2.30;;;6.00;99.90;;;;;;5012679;28;20207;-67
2023/04/30 02:15:29;;;;;;;7.93;2.10;;;6.00;99.90;;;;;;4999653;28;20177;-64
2023/04/30 02:17:54;;;;;;;6.50;2.43;;;6.10;99.90;;;;;;5003868;28;20766;-65
2023/04/30 02:20:20;;;;;;;3.70;3.13;;;6.00;99.90;;;;;;5010573;28;20196;-66
2023/04/30 02:22:45;;;;;;;7.63;3.93;;;5.90;99.90;;;;;;5004812;28;20263;-65
2023/04/30 02:25:11;;;;;;;6.33;2.30;;;5.90;99.90;;;;;;5011734;28;20188;-65
2023/04/30 02:27:37;;;;;;;7.30;3.00;;;6.00;99.90;;;;;;5016680;28;20178;-65
2023/04/30 02:30:03;;;;;;;5.50;2.10;;;6.00;99.90;;;;;;5006823;28;20218;-65
2023/04/30 02:32:29;;;;;;;4.93;2.73;;;6.00;99.90;;;;;;5009213;28;20419;-64
2023/04/30 02:34:55;;;;;;;4.80;3.00;;;6.00;99.90;;;;;;5001654;28;20407;-65
2023/04/30 02:37:21;;;;;;;4.77;2.70;;;5.90;99.90;;;;;;5004830;28;20204;-65
2023/04/30 02:39:47;;;;;;;5.47;2.80;;;5.80;99.90;;;;;;5012364;28;20481;-65
2023/04/30 02:42:12;;;;;;;3.60;2.60;;;5.80;99.90;;;;;;5011339;28;20419;-64
2023/04/30 02:44:38;;;;;;;4.53;3.03;;;5.70;99.90;;;;;;5009599;28;20228;-67
2023/04/30 02:47:04;;;;;;;4.20;2.37;;;5.70;99.90;;;;;;5006426;28;20247;-65
2023/04/30 02:49:29;;;;;;;7.47;3.40;;;5.60;99.90;;;;;;5021267;28;20250;-65
2023/04/30 02:51:55;;;;;;;5.43;2.90;;;5.60;99.90;;;;;;5009798;28;20610;-65
2023/04/30 02:54:21;;;;;;;5.73;2.60;;;5.50;99.90;;;;;;5007880;28;20219;-66
2023/04/30 02:56:46;;;;;;;3.70;2.60;;;5.60;99.90;;;;;;5012294;28;20210;-65
2023/04/30 02:59:12;;;;;;;3.63;2.20;;;5.50;99.90;;;;;;4989603;28;20183;-65
2023/04/30 03:01:38;;;;;;;4.10;2.40;;;5.50;99.90;;;;;;5016585;28;20215;-65
2023/04/30 03:04:04;;;;;;;3.80;2.53;;;5.50;99.90;;;;;;5006975;28;20930;-65
2023/04/30 03:06:30;;;;;;;5.80;2.73;;;5.50;99.90;;;;;;5002655;28;20197;-64
2023/04/30 03:08:56;;;;;;;3.83;2.43;;;5.40;99.90;;;;;;5001086;28;20176;-66
2023/04/30 03:11:22;;;;;;;5.70;2.20;;;5.50;99.90;;;;;;5007851;28;20573;-65
2023/04/30 03:13:51;;;;;;;3.60;2.20;;;5.40;99.90;;;;;;5003956;28;20511;-65
2023/04/30 03:16:18;;;;;;;11.30;2.90;;;5.40;99.90;;;;;;5007156;28;20180;-67
2023/04/30 03:18:45;;;;;;;5.13;3.00;;;5.30;99.90;;;;;;5005431;28;20909;-65
2023/04/30 03:21:10;;;;;;;5.90;3.27;;;5.40;99.90;;;;;;5006056;28;20936;-65
2023/04/30 03:23:36;;;;;;;3.77;2.87;;;5.40;99.90;;;;;;5016702;28;20425;-65
2023/04/30 03:26:02;;;;;;;4.00;2.33;;;5.30;99.90;;;;;;5015054;28;20626;-66
2023/04/30 03:28:28;;;;;;;6.40;2.63;;;5.20;99.90;;;;;;5014144;28;20628;-66
2023/04/30 03:30:53;;;;;;;6.70;3.43;;;5.20;99.90;;;;;;5004605;28;20188;-65
2023/04/30 03:33:19;;;;;;;3.20;2.73;;;5.20;99.90;;;;;;5015693;28;20220;-66
2023/04/30 03:35:45;;;;;;;6.23;3.00;;;5.20;99.90;;;;;;5003407;28;20643;-66
2023/04/30 03:38:10;;;;;;;5.80;2.67;;;5.20;99.90;;;;;;5022693;28;20187;-66
2023/04/30 03:40:36;;;;;;;3.43;2.83;;;5.20;99.90;;;;;;4994109;28;20204;-67
2023/04/30 03:43:02;;;;;;;8.30;3.50;;;5.10;99.90;;;;;;5005827;28;20193;-66
2023/04/30 03:45:27;;;;;;;5.87;3.33;;;5.10;99.90;;;;;;4998473;28;20208;-66
2023/04/30 03:47:53;;;;;;;6.00;2.93;;;5.10;99.90;;;;;;5001360;28;20263;-66
2023/04/30 03:50:18;;;;;;;4.07;2.33;;;5.10;99.90;;;;;;5014479;28;20192;-66
2023/04/30 03:52:45;;;;;;;4.50;2.60;;;5.10;99.90;;;;;;5000541;28;20173;-67
2023/04/30 03:55:11;;;;;;;5.53;2.93;;;5.10;99.90;;;;;;5013478;28;20248;-66
2023/04/30 03:57:39;;;;;;;5.80;3.73;;;5.10;99.90;;;;;;5014214;28;20515;-66
2023/04/30 04:00:23;;;;;;;6.47;3.10;;;5.10;99.90;;;;;;4986734;28;20880;-66
2023/04/30 04:02:49;;;;;;;4.23;3.27;;;5.00;99.90;;;;;;5000174;28;20455;-66
2023/04/30 04:05:15;;;;;;;5.07;3.40;;;5.10;99.90;;;;;;5012136;28;20483;-66
2023/04/30 04:07:41;;;;;;;4.57;2.93;;;5.00;99.90;;;;;;5014196;28;20176;-66
2023/04/30 04:10:07;;;;;;;6.73;3.87;;;5.10;99.90;;;;;;5000438;28;20196;-67
2023/04/30 04:12:32;;;;;;;5.13;2.80;;;5.10;99.90;;;;;;5013392;28;20753;-66
2023/04/30 04:14:58;;;;;;;6.03;3.13;;;5.10;99.90;;;;;;4981586;28;20434;-67
2023/04/30 04:17:23;;;;;;;7.27;4.13;;;5.10;99.90;;;;;;5016237;28;20268;-66
2023/04/30 04:19:49;;;;;;;4.27;3.03;;;5.20;99.90;;;;;;5009888;28;20568;-67
2023/04/30 04:22:14;;;;;;;7.27;3.50;;;5.10;99.90;;;;;;5014688;28;20643;-66
2023/04/30 04:24:40;;;;;;;8.53;3.43;;;5.20;99.90;;;;;;5011934;28;20545;-65
2023/04/30 04:27:06;;;;;;;8.20;3.20;;;5.20;99.90;;;;;;4995223;28;20176;-66
2023/04/30 04:29:31;;;;;;;4.20;3.30;;;5.20;99.90;;;;;;5010241;28;20562;-67
2023/04/30 04:31:59;;;;;;;4.33;3.10;;;5.30;99.90;;;;;;5005759;28;20195;-66
2023/04/30 04:34:25;;;;;;;5.03;2.87;;;5.30;99.90;;;;;;5008201;28;20606;-66
2023/04/30 04:36:51;;;;;;;3.40;3.10;;;5.30;99.90;;;;;;5011718;28;20412;-66
2023/04/30 04:39:17;;;;;;;4.73;3.03;;;5.30;99.90;;;;;;5001916;28;20483;-66
2023/04/30 04:41:42;;;;;;;6.07;2.87;;;5.30;99.90;;;;;;5008008;28;20618;-66
2023/04/30 04:44:08;;;;;;;6.20;3.17;;;5.40;99.90;;;;;;5018755;28;20576;-67
2023/04/30 04:46:37;;;;;;;18.23;3.90;;;5.40;99.90;;;;;;5009752;28;20276;-68
2023/04/30 04:49:03;;;;;;;3.97;3.57;;;5.50;99.90;;;;;;5016940;28;20263;-66
2023/04/30 04:51:28;;;;;;;4.67;3.33;;;5.50;99.90;;;;;;5009050;28;20428;-66
2023/04/30 04:53:54;;;;;;;5.83;3.50;;;5.50;99.90;;;;;;5017128;28;20419;-66
2023/04/30 04:56:20;;;;;;;7.17;3.43;;;5.60;99.90;;;;;;5006167;28;20176;-66
2023/04/30 04:58:46;;;;;;;7.93;3.10;;;5.60;99.90;;;;;;5015744;28;20355;-65
2023/04/30 05:01:12;;;;;;;3.13;2.83;;;5.70;99.90;;;;;;4997608;28;20307;-66
2023/04/30 05:03:37;;;;;;;11.43;3.67;;;5.70;99.90;;;;;;5004429;28;20502;-66
2023/04/30 05:06:04;;;;;;;7.83;3.90;;;5.80;99.90;;;;;;4981233;28;20196;-66
2023/04/30 05:08:30;;;;;;;4.03;2.70;;;5.80;99.90;;;;;;5011916;28;20180;-66
2023/04/30 05:10:55;;;;;;;6.13;3.30;;;5.90;99.90;;;;;;4996072;28;20808;-65
2023/04/30 05:13:21;;;;;;;6.67;3.17;;;6.00;99.90;;;;;;5011532;28;20883;-67
2023/04/30 05:15:50;;;;;;;4.70;3.87;;;6.10;99.90;;;;;;5015382;28;20172;-66
2023/04/30 05:18:15;;;;;;;3.53;2.90;;;6.20;99.90;;;;;;5008665;28;20658;-66
2023/04/30 05:20:41;;;;;;;4.60;2.97;;;6.40;99.90;;;;;;5018030;28;20528;-67
2023/04/30 05:23:07;;;;;;;7.37;3.40;;;6.70;99.90;;;;;;5016834;28;20177;-67
2023/04/30 05:25:32;;;;;;;6.17;3.67;;;7.00;99.90;;;;;;5007831;28;20197;-66
2023/04/30 05:27:58;;;;;;;6.73;3.20;;;7.60;99.90;;;;;;5005223;28;20179;-67
2023/04/30 05:30:23;;;;;;;9.33;2.17;;;8.00;99.90;;;;;;5008016;28;20184;-67
2023/04/30 05:32:51;;;;;;;4.90;2.50;;;8.90;99.90;;;;;;5010229;28;20215;-65
2023/04/30 05:35:17;;;;;;;3.57;2.23;;;9.10;99.90;;;;;;5009541;28;20168;-64
2023/04/30 05:37:43;;;;;;;4.80;2.10;;;9.10;99.90;;;;;;4983737;28;20425;-66
2023/04/30 05:40:09;;;;;;;3.87;2.23;;;10.30;99.90;;;;;;5021617;28;20434;-64
2023/04/30 05:42:37;;;;;;;5.43;1.93;;;10.60;99.90;;;;;;5012872;28;20175;-65
2023/04/30 05:45:03;;;;;;;6.83;3.13;;;10.30;99.90;;;;;;4986880;28;20458;-65
2023/04/30 05:47:28;;;;;;;5.00;2.63;;;10.60;99.90;;;;;;5000906;28;20514;-66
2023/04/30 05:49:54;;;;;;;3.13;2.03;;;11.60;99.90;;;;;;5008901;28;20522;-65
2023/04/30 05:52:20;;;;;;;2.73;2.10;;;12.00;99.90;;;;;;5008583;28;20190;-66
2023/04/30 05:54:47;;;;;;;3.97;2.20;;;12.50;99.90;;;;;;5013692;28;20537;-67
2023/04/30 05:57:12;;;;;;;6.63;2.73;;;13.00;99.90;;;;;;5004551;28;20686;-66
2023/04/30 05:59:38;;;;;;;3.97;3.17;;;12.00;99.90;;;;;;5007979;28;20463;-65
2023/04/30 06:02:04;;;;;;;4.90;2.57;;;11.80;99.90;;;;;;5014214;28;20255;-66
2023/04/30 06:04:30;;;;;;;2.57;2.10;;;12.30;99.90;;;;;;5006830;28;20253;-65
2023/04/30 06:06:56;;;;;;;4.03;2.50;;;13.10;99.90;;;;;;5015786;28;20660;-66
2023/04/30 06:09:21;;;;;;;7.17;2.77;;;13.50;99.90;;;;;;5001034;28;20511;-66
2023/04/30 06:11:49;;;;;;;6.77;2.73;;;13.70;99.90;;;;;;5001086;28;20227;-67
2023/04/30 06:14:16;;;;;;;5.33;3.10;;;13.30;99.90;;;;;;5000100;28;20183;-67
2023/04/30 06:16:42;;;;;;;3.63;2.70;;;14.00;99.90;;;;;;5012573;28;20945;-67
2023/04/30 06:19:08;;;;;;;3.97;2.43;;;13.90;99.90;;;;;;5002901;28;20426;-67
2023/04/30 06:21:33;;;;;;;4.93;2.23;;;14.80;99.90;;;;;;5010313;28;20441;-67
2023/04/30 06:23:59;;;;;;;6.33;2.40;;;15.20;99.90;;;;;;5005095;28;20219;-70
2023/04/30 06:26:25;;;;;;;5.17;2.43;;;15.10;99.90;;;;;;5018867;28;20204;-66
2023/04/30 06:28:50;;;;;;;6.97;3.10;;;14.90;99.90;;;;;;5005764;28;20199;-66
2023/04/30 06:31:16;;;;;;;3.90;2.00;;;15.40;99.90;;;;;;5011516;28;20212;-66
2023/04/30 06:33:41;;;;;;;6.90;1.97;;;14.70;99.90;;;;;;5007333;28;20558;-66
2023/04/30 06:36:07;;;;;;;6.03;2.50;;;15.30;99.90;;;;;;5008103;28;20671;-67
2023/04/30 06:38:33;;;;;;;3.37;1.90;;;15.60;99.90;;;;;;5003639;28;20261;-66
2023/04/30 06:40:58;;;;;;;5.50;2.80;;;16.00;99.90;;;;;;5004884;28;20208;-65
2023/04/30 06:43:24;;;;;;;6.83;2.50;;;15.60;99.90;;;;;;5012665;28;20205;-66
2023/04/30 06:45:49;;;;;;;4.67;3.10;;;15.00;99.90;;;;;;5003216;28;20196;-68
2023/04/30 06:48:15;;;;;;;5.23;2.50;;;14.90;99.90;;;;;;5005528;28;20176;-65
2023/04/30 06:50:46;;;;;;;4.57;2.60;;;16.00;99.90;;;;;;4985901;28;20278;-65
2023/04/30 06:53:12;;;;;;;5.60;2.23;;;16.00;99.90;;;;;;5006908;28;20179;-67
2023/04/30 06:55:38;;;;;;;4.37;1.80;;;16.00;99.90;;;;;;5021529;28;20430;-66
2023/04/30 06:58:07;;;;;;;4.40;2.20;;;16.80;99.90;;;;;;5007815;28;20898;-67
2023/04/30 07:00:33;;;;;;;4.60;2.80;;;17.00;99.90;;;;;;5007494;28;20228;-66
2023/04/30 07:03:03;;;;;;;39.77;28.30;;;16.90;99.90;;;;;;5011681;28;20844;-67
2023/04/30 07:05:30;;;;;;;23.17;15.60;;;17.10;99.90;;;;;;5006958;28;20877;-68
2023/04/30 07:07:56;;;;;;;8.90;4.73;;;16.70;99.90;;;;;;4984477;28;20454;-66
2023/04/30 07:10:21;;;;;;;10.73;6.43;;;16.30;99.90;;;;;;5001579;28;20431;-66
2023/04/30 07:12:47;;;;;;;8.43;5.47;;;14.50;99.90;;;;;;5020840;28;20418;-66
2023/04/30 07:15:13;;;;;;;10.40;7.57;;;16.60;99.90;;;;;;5003017;28;20175;-66
2023/04/30 07:17:40;;;;;;;7.77;2.80;;;17.50;99.60;;;;;;4994067;28;20190;-67
2023/04/30 07:20:07;;;;;;;7.20;3.30;;;18.00;97.80;;;;;;5007856;28;20192;-67
2023/04/30 07:22:33;;;;;;;9.80;5.20;;;16.10;98.60;;;;;;5020951;28;20460;-69
2023/04/30 07:24:59;;;;;;;5.50;2.10;;;16.80;99.90;;;;;;5006246;28;20451;-68
2023/04/30 07:27:27;;;;;;;3.30;2.47;;;15.80;98.70;;;;;;5005505;28;20618;-67
2023/04/30 07:29:54;;;;;;;4.97;2.30;;;16.00;98.70;;;;;;4989992;28;20447;-67
2023/04/30 07:32:20;;;;;;;3.80;2.67;;;15.30;99.90;;;;;;5017393;28;20453;-67
2023/04/30 07:34:46;;;;;;;6.83;3.27;;;15.80;99.90;;;;;;5008272;28;20486;-66
2023/04/30 07:37:12;;;;;;;21.80;15.50;;;14.80;99.70;;;;;;5007976;28;20414;-67
2023/04/30 07:39:38;;;;;;;5.53;3.00;;;16.50;99.40;;;;;;5011256;28;21021;-73
2023/04/30 07:42:03;;;;;;;7.33;5.63;;;16.50;98.30;;;;;;4999135;28;20519;-70
2023/04/30 07:44:30;;;;;;;5.30;4.13;;;16.60;99.50;;;;;;4988549;28;20169;-70
2023/04/30 07:46:56;;;;;;;6.23;2.87;;;16.00;97.40;;;;;;5003857;28;20183;-68
2023/04/30 07:49:21;;;;;;;8.13;4.17;;;14.60;99.50;;;;;;5005212;28;20756;-69
2023/04/30 07:51:47;;;;;;;4.03;2.43;;;15.90;99.90;;;;;;5011988;28;20179;-67
2023/04/30 07:54:13;;;;;;;5.87;3.27;;;14.80;99.20;;;;;;5007868;28;20171;-67
2023/04/30 07:56:38;;;;;;;7.20;2.43;;;13.80;98.90;;;;;;5018942;28;20180;-67
2023/04/30 07:59:04;;;;;;;15.00;9.50;;;13.50;99.90;;;;;;5005040;28;20539;-67
2023/04/30 08:01:30;;;;;;;6.23;3.50;;;14.50;99.90;;;;;;5016127;28;20210;-68
2023/04/30 08:03:56;;;;;;;5.73;3.23;;;15.30;99.90;;;;;;5000917;28;20417;-70
2023/04/30 08:06:22;;;;;;;7.70;3.10;;;15.40;99.50;;;;;;5004591;28;20466;-66
2023/04/30 08:08:47;;;;;;;21.27;15.63;;;16.10;94.70;;;;;;5004908;28;20179;-66
2023/04/30 08:11:15;;;;;;;5.70;4.43;;;16.40;96.00;;;;;;4985382;28;20463;-67
2023/04/30 08:13:41;;;;;;;4.87;2.23;;;15.10;95.40;;;;;;5019742;28;20475;-66
2023/04/30 08:16:07;;;;;;;5.30;2.07;;;15.90;93.10;;;;;;5010472;28;20428;-66
2023/04/30 08:18:33;;;;;;;6.07;2.27;;;16.40;92.90;;;;;;5001515;28;20423;-66
2023/04/30 08:21:00;;;;;;;5.67;2.47;;;16.70;92.60;;;;;;5014101;28;20483;-66
2023/04/30 08:23:25;;;;;;;6.43;2.20;;;16.60;92.60;;;;;;4993589;28;20192;-66
2023/04/30 08:25:51;;;;;;;3.70;1.83;;;17.30;92.40;;;;;;5012113;28;20475;-66
2023/04/30 08:28:17;;;;;;;5.60;2.10;;;15.90;91.30;;;;;;5004997;28;20922;-65
2023/04/30 08:30:43;;;;;;;4.27;2.00;;;16.80;92.10;;;;;;5004566;28;20188;-65
2023/04/30 08:33:09;;;;;;;3.20;2.30;;;17.20;91.10;;;;;;5011601;28;20918;-65
2023/04/30 08:35:35;;;;;;;5.90;2.63;;;18.50;89.40;;;;;;5010798;28;20465;-67
2023/04/30 08:38:00;;;;;;;5.00;3.37;;;19.20;87.10;;;;;;4980381;28;20419;-67
2023/04/30 08:40:26;;;;;;;6.97;2.50;;;19.40;86.40;;;;;;5005582;28;20198;-66
2023/04/30 08:43:13;;;;;;;2.93;2.53;;;18.50;90.10;;;;;;5014076;28;20172;-66
2023/04/30 08:45:40;;;;;;;2.50;1.90;;;18.00;89.70;;;;;;5009312;28;20461;-64
2023/04/30 08:48:12;;;;;;;5.67;2.37;;;17.30;88.00;;;;;;5008930;28;20561;-65
2023/04/30 08:50:38;;;;;;;2.07;1.80;;;18.20;86.40;;;;;;5009507;28;20434;-65
2023/04/30 08:53:06;;;;;;;3.00;2.53;;;18.00;87.80;;;;;;5008904;28;20469;-65
2023/04/30 08:55:33;;;;;;;3.37;2.90;;;16.50;90.40;;;;;;4995185;28;20465;-66
2023/04/30 08:57:58;;;;;;;2.90;2.00;;;17.50;86.50;;;;;;5007051;28;20418;-66
2023/04/30 09:00:25;;;;;;;3.53;1.80;;;17.60;78.80;;;;;;5007223;28;20466;-66
2023/04/30 09:02:51;;;;;;;5.40;3.70;;;16.80;85.60;;;;;;4982092;28;20824;-65
2023/04/30 09:05:17;;;;;;;4.90;2.23;;;17.30;83.70;;;;;;4979251;28;20553;-65
2023/04/30 09:07:44;;;;;;;3.83;2.10;;;17.50;81.20;;;;;;5009494;28;20255;-65
2023/04/30 09:10:15;;;;;;;7.20;2.27;;;17.20;81.20;;;;;;5006196;28;20199;-66
2023/04/30 09:12:44;;;;;;;5.73;3.10;;;17.90;84.20;;;;;;4982133;28;20422;-65
2023/04/30 09:15:11;;;;;;;3.03;1.97;;;17.60;81.50;;;;;;5005544;28;20989;-65
2023/04/30 09:17:37;;;;;;;6.70;1.90;;;17.40;78.90;;;;;;5017752;28;20415;-66
2023/04/30 09:20:07;;;;;;;2.50;1.93;;;17.90;74.90;;;;;;5017192;28;20457;-65
2023/04/30 09:22:35;;;;;;;4.00;1.97;;;18.40;72.30;;;;;;5011804;28;20914;-65
2023/04/30 09:25:01;;;;;;;2.77;1.93;;;16.60;74.30;;;;;;5007052;28;20849;-64
2023/04/30 09:27:27;;;;;;;4.23;2.50;;;15.70;80.00;;;;;;5007385;28;20829;-64
2023/04/30 09:29:53;;;;;;;6.33;2.80;;;16.20;82.90;;;;;;5008174;28;20510;-66
2023/04/30 09:32:18;;;;;;;3.40;2.70;;;17.10;82.10;;;;;;5016322;28;20259;-68
2023/04/30 09:34:44;;;;;;;1.93;1.37;;;17.60;82.30;;;;;;5009895;28;20171;-64
2023/04/30 09:37:10;;;;;;;2.87;2.10;;;17.20;78.80;;;;;;5009718;28;20181;-65
2023/04/30 09:39:53;;;;;;;2.70;1.80;;;17.60;73.70;;;;;;5011984;28;20225;-65
2023/04/30 09:42:20;;;;;;;4.90;1.97;;;17.40;72.80;;;;;;5006268;28;20464;-65
2023/04/30 09:44:46;;;;;;;2.17;1.80;;;18.10;68.10;;;;;;5012094;28;20443;-64
2023/04/30 09:47:14;;;;;;;2.10;1.70;;;16.50;70.90;;;;;;5007835;28;20464;-66
2023/04/30 09:49:42;;;;;;;3.87;1.80;;;17.00;67.90;;;;;;5010432;28;20438;-66
2023/04/30 09:52:08;;;;;;;2.10;1.47;;;17.10;67.10;;;;;;5007370;28;20986;-66
2023/04/30 09:54:35;;;;;;;3.70;2.50;;;16.40;64.90;;;;;;5002193;28;20777;-66
2023/04/30 09:57:02;;;;;;;2.03;1.83;;;16.50;67.30;;;;;;5008933;28;20428;-66
2023/04/30 09:59:34;;;;;;;3.40;1.90;;;16.40;67.50;;;;;;5006640;28;20636;-66
2023/04/30 10:02:01;;;;;;;3.80;2.00;;;16.20;69.50;;;;;;5017511;28;20513;-66
2023/04/30 10:04:35;;;;;;;3.57;2.13;;;15.20;72.10;;;;;;5001397;28;20436;-65
2023/04/30 10:07:05;;;;;;;3.60;2.27;;;15.10;69.70;;;;;;5017056;28;20471;-65
2023/04/30 10:09:40;;;;;;;3.83;2.23;;;14.60;68.00;;;;;;4999966;28;20402;-66
2023/04/30 10:12:12;;;;;;;7.40;2.23;;;14.90;67.90;;;;;;5018492;28;20879;-67
2023/04/30 10:14:39;;;;;;;2.50;2.20;;;14.10;73.00;;;;;;5009104;28;20970;-67
2023/04/30 10:17:15;;;;;;;2.90;2.00;;;13.70;75.10;;;;;;4994366;28;20405;-66
2023/04/30 10:19:45;;;;;;;2.50;2.10;;;13.90;77.80;;;;;;4987578;28;20795;-66
2023/04/30 10:22:11;;;;;;;3.93;2.10;;;13.90;73.20;;;;;;5012462;28;20491;-66
2023/04/30 10:24:37;;;;;;;4.87;1.90;;;13.60;72.00;;;;;;5007971;28;20494;-66
2023/04/30 10:27:03;;;;;;;2.80;1.80;;;13.40;74.70;;;;;;5010597;28;20234;-65
2023/04/30 10:29:29;;;;;;;4.40;2.17;;;13.40;77.20;;;;;;5004115;28;20785;-66
2023/04/30 10:31:55;;;;;;;2.03;1.83;;;13.50;76.60;;;;;;5007929;28;20419;-67
2023/04/30 10:34:30;;;;;;;7.67;2.23;;;13.90;77.10;;;;;;5000739;28;20244;-67
2023/04/30 10:37:03;;;;;;;5.83;2.30;;;13.70;74.00;;;;;;5007121;28;20403;-66
2023/04/30 10:39:29;;;;;;;3.30;2.03;;;13.90;71.60;;;;;;5011352;28;20457;-68
2023/04/30 10:42:05;;;;;;;3.40;2.03;;;13.60;73.90;;;;;;5011111;28;20427;-67
2023/04/30 10:44:36;;;;;;;2.20;2.00;;;13.90;73.40;;;;;;4986472;28;20463;-66
2023/04/30 10:47:03;;;;;;;2.90;1.93;;;14.20;74.20;;;;;;5006513;28;20412;-65
2023/04/30 10:49:29;;;;;;;3.50;1.90;;;14.00;76.00;;;;;;5003148;28;20823;-66
2023/04/30 10:51:59;;;;;;;4.53;2.43;;;13.70;76.90;;;;;;5007224;28;20402;-65
2023/04/30 10:54:27;;;;;;;2.63;2.10;;;13.40;74.90;;;;;;5013610;28;20927;-65
2023/04/30 10:56:55;;;;;;;2.73;1.80;;;13.40;75.40;;;;;;5004610;28;20469;-66
2023/04/30 10:59:21;;;;;;;4.33;1.90;;;13.60;71.50;;;;;;5003216;28;20420;-66
2023/04/30 11:02:00;;;;;;;2.43;2.07;;;13.60;73.70;;;;;;5017094;28;20946;-65
2023/04/30 11:04:26;;;;;;;2.03;1.70;;;13.60;74.00;;;;;;5010310;28;20407;-66
2023/04/30 11:06:55;;;;;;;2.67;1.70;;;13.70;76.30;;;;;;5015080;28;20450;-66
2023/04/30 11:09:47;;;;;;;3.00;2.10;;;13.90;76.30;;;;;;5000676;28;20415;-65
2023/04/30 11:12:27;;;;;;;12.00;2.63;;;13.70;73.90;;;;;;5007932;28;20422;-66
2023/04/30 11:15:06;;;;;;;3.50;1.97;;;13.70;74.30;;;;;;5013940;28;20450;-65
2023/04/30 11:17:32;;;;;;;2.83;1.87;;;13.80;75.40;;;;;;5001209;28;20422;-67
2023/04/30 11:20:00;;;;;;;3.27;2.10;;;13.60;75.20;;;;;;5007147;28;20839;-66
2023/04/30 11:22:28;;;;;;;3.50;1.93;;;13.60;76.50;;;;;;5011418;28;20411;-65
2023/04/30 11:25:05;;;;;;;4.13;2.60;;;13.90;74.90;;;;;;5004165;28;20429;-65
2023/04/30 11:27:33;;;;;;;3.93;2.07;;;13.50;76.40;;;;;;5010294;28;20403;-64
2023/04/30 11:29:59;;;;;;;2.57;1.73;;;13.30;77.20;;;;;;5013272;28;20433;-65
2023/04/30 11:32:32;;;;;;;1.97;1.80;;;13.40;76.10;;;;;;5017116;28;20400;-66
2023/04/30 11:34:59;;;;;;;2.93;2.10;;;13.20;77.10;;;;;;5005616;28;20449;-65
2023/04/30 11:37:44;;;;;;;4.40;1.57;;;13.40;78.70;;;;;;5008680;28;20408;-66
2023/04/30 11:40:11;;;;;;;5.10;2.37;;;13.50;78.60;;;;;;5012516;28;20922;-66
2023/04/30 11:42:39;;;;;;;4.43;1.87;;;13.50;77.70;;;;;;4993878;28;20408;-66
2023/04/30 11:45:14;;;;;;;2.60;2.40;;;13.40;76.40;;;;;;5010577;28;20448;-66
2023/04/30 11:47:46;;;;;;;3.37;2.27;;;13.40;77.10;;;;;;5003563;28;20416;-66
2023/04/30 11:50:15;;;;;;;3.70;1.90;;;13.40;76.00;;;;;;5019694;28;20450;-66
2023/04/30 11:52:41;;;;;;;7.67;2.20;;;13.40;78.70;;;;;;5009510;28;20407;-67
2023/04/30 11:55:15;;;;;;;3.53;1.80;;;13.90;78.60;;;;;;5003221;28;21001;-67
2023/04/30 11:57:46;;;;;;;4.93;2.53;;;14.10;76.80;;;;;;5010121;28;20431;-67
2023/04/30 12:00:18;;;;;;;4.20;2.30;;;14.00;77.30;;;;;;5013633;28;20534;-67
2023/04/30 12:02:45;;;;;;;3.60;2.70;;;14.10;78.50;;;;;;5015560;28;20413;-67
2023/04/30 12:05:19;;;;;;;2.60;1.93;;;13.90;78.70;;;;;;5011091;28;20467;-66
2023/04/30 12:07:54;;;;;;;2.20;1.97;;;13.90;78.10;;;;;;5014403;28;20485;-66
2023/04/30 12:10:21;;;;;;;4.50;1.80;;;13.70;78.50;;;;;;5004376;28;20430;-66
2023/04/30 12:12:48;;;;;;;2.97;2.40;;;13.90;78.60;;;;;;5023822;28;20409;-66
2023/04/30 12:15:15;;;;;;;2.60;2.07;;;14.30;80.00;;;;;;5006380;28;20552;-67
2023/04/30 12:17:41;;;;;;;4.17;2.57;;;14.10;77.40;;;;;;5011109;28;20465;-67
2023/04/30 12:20:08;;;;;;;2.80;2.07;;;14.20;77.10;;;;;;5019863;28;20474;-65
2023/04/30 12:22:36;;;;;;;2.70;1.83;;;14.30;77.70;;;;;;5014570;28;20415;-66
2023/04/30 12:25:12;;;;;;;3.40;1.80;;;13.80;78.60;;;;;;5015060;28;20785;-65
2023/04/30 12:27:39;;;;;;;2.30;2.00;;;14.00;79.40;;;;;;5013000;28;20781;-65
2023/04/30 12:30:07;;;;;;;4.93;2.57;;;14.30;77.20;;;;;;5006315;28;20423;-66
2023/04/30 12:32:40;;;;;;;5.23;2.40;;;14.10;77.30;;;;;;5011995;28;20419;-65
2023/04/30 12:35:07;;;;;;;2.27;1.90;;;14.00;78.20;;;;;;5011178;28;20461;-65
2023/04/30 12:37:33;;;;;;;10.47;2.60;;;14.20;78.80;;;;;;5016038;28;20420;-65
2023/04/30 12:39:59;;;;;;;4.40;2.27;;;14.20;78.30;;;;;;5006783;28;20435;-66
2023/04/30 12:42:31;;;;;;;5.63;2.40;;;14.30;78.90;;;;;;5004280;28;20173;-66
2023/04/30 12:44:57;;;;;;;2.90;2.60;;;14.40;78.50;;;;;;5013247;28;20411;-65
2023/04/30 12:47:24;;;;;;;4.67;2.23;;;14.40;78.90;;;;;;5003751;28;20414;-66
2023/04/30 12:49:50;;;;;;;4.00;2.30;;;14.50;78.60;;;;;;5002476;28;20193;-65
2023/04/30 12:52:15;;;;;;;6.23;2.83;;;14.30;79.90;;;;;;5009352;28;20407;-65
2023/04/30 12:54:41;;;;;;;7.13;2.77;;;14.30;80.10;;;;;;5015590;28;20168;-66